KLWD

Lamoni Municipal Airport

Lamoni, Iowa, USA
METAR KLWD 221353Z AUTO 29005KT 10SM CLR 09/06 A3010 RMK AO2 SLP197 T00940061
Observed Flight Rules
Oct-22 @ 13:53 UTC (27 minutes ago) Visual Flight Rules
Wind Visibility Clouds
290° at 5 knots 10 miles
  • Clear skies
Temperatures Readings
Current 9°C / 48°F
Dewpoint 6°C / 43°F
Humidity 82%
Altimeter 30.1" Hg
Pressure 1019.7 hPa
Elevation 346
METAR KLWD 221353Z AUTO 29005KT 10SM CLR 09/06 A3010 RMK AO2 SLP197 T00940061
Observed Flight Rules
Oct-22 @ 13:53 UTC
(27 minutes ago)
VFR
Wind Visibility
290° at 5 knots 10 miles
Clouds
  • Clear skies
Temperature Dewpoint
9°C / 48°F 6°C / 43°F
Humidity Altimeter Pressure
82% 30.1" Hg 1019.7 hPa